Time;durP1;ratioP1;P1;durP2;ratioP2;P2;SDS_P1;SDS_P2;PMS_P1;PMS_P2;Temp;Humidity;BMP_temperature;BMP_pressure;BME280_temperature;BME280_humidity;BME280_pressure;Samples;Min_cycle;Max_cycle;Signal;HPM_P1;HPM_P2
2022/05/25 00:02:24;;;;;;;;;;;;;;;;;;5060955;28;970;-68
2022/05/25 00:04:50;;;;;;;;;;;;;;;;;;5063943;28;1965;-68
2022/05/25 00:07:16;;;;;;;;;;;;;;;;;;5063705;28;850;-68
2022/05/25 00:09:41;;;;;;;;;;;;;;;;;;5062856;28;1462;-68
2022/05/25 00:12:07;;;;;;;;;;;;;;;;;;5057705;28;1729;-69
2022/05/25 00:14:32;;;;;;;;;;;;;;;;;;5055913;28;1343;-69
2022/05/25 00:16:58;;;;;;;;;;;;;;;;;;5063486;28;1471;-69
2022/05/25 00:22:07;;;;;;;;;;;;;;;;;;5063725;28;1618;-69
2022/05/25 00:24:32;;;;;;;;;;;;;;;;;;5063207;28;1965;-69
2022/05/25 00:26:58;;;;;;;;;;;;;;;;;;5060168;28;1763;-68
2022/05/25 00:29:23;;;;;;;;;;;;;;;;;;5062689;28;1243;-68
2022/05/25 00:31:48;;;;;;;;;;;;;;;;;;5063158;28;1442;-68
2022/05/25 00:34:13;;;;;;;;;;;;;;;;;;5063224;28;1438;-68
2022/05/25 00:36:39;;;;;;;;;;;;;;;;;;5060454;28;1776;-68
2022/05/25 00:39:05;;;;;;;;;;;;;;;;;;5062230;28;1358;-68
2022/05/25 00:41:30;;;;;;;;;;;;;;;;;;5062294;28;1846;-68
2022/05/25 00:43:56;;;;;;;;;;;;;;;;;;5061763;28;1953;-67
2022/05/25 00:46:22;;;;;;;;;;;;;;;;;;5063193;28;1454;-67
2022/05/25 00:48:50;;;;;;;;;;;;;;;;;;5062395;28;1287;-67
2022/05/25 00:51:21;;;;;;;;;;;;;;;;;;5062974;28;985;-68
2022/05/25 00:54:07;;;;;;;;;;;;;;;;;;5062946;28;1486;-67
2022/05/25 00:56:33;;;;;;;;;;;;;;;;;;5059134;28;1772;-67
2022/05/25 00:59:03;;;;;;;;;;;;;;;;;;5062269;28;1227;-67
2022/05/25 01:01:29;;;;;;;;;;;;;;;;;;5062915;28;1462;-68
2022/05/25 01:03:54;;;;;;;;;;;;;;;;;;5057127;28;1965;-68
2022/05/25 01:06:27;;;;;;;;;;;;;;;;;;5060826;28;1248;-68
2022/05/25 01:08:55;;;;;;;;;;;;;;;;;;5060515;28;1598;-68
2022/05/25 01:11:20;;;;;;;;;;;;;;;;;;5053647;28;1830;-68
2022/05/25 01:14:03;;;;;;;;;;;;;;;;;;5062192;28;1466;-69
2022/05/25 01:16:36;;;;;;;;;;;;;;;;;;5062467;28;1481;-67
2022/05/25 01:19:01;;;;;;;;;;;;;;;;;;5061878;28;1705;-67
2022/05/25 01:21:35;;;;;;;;;;;;;;;;;;5062688;28;1032;-67
2022/05/25 01:24:06;;;;;;;;;;;;;;;;;;5060902;28;1985;-67
2022/05/25 01:26:35;;;;;;;;;;;;;;;;;;5062577;28;1270;-68
2022/05/25 01:29:09;;;;;;;;;;;;;;;;;;5060933;28;1744;-67
2022/05/25 01:31:44;;;;;;;;;;;;;;;;;;5057443;28;1471;-68
2022/05/25 01:34:12;;;;;;;;;;;;;;;;;;5062311;28;1060;-67
2022/05/25 01:36:37;;;;;;;;;;;;;;;;;;5060545;28;1514;-67
2022/05/25 01:39:07;;;;;;;;;;;;;;;;;;5060450;28;1586;-66
2022/05/25 01:41:38;;;;;;;;;;;;;;;;;;5062319;28;1364;-67
2022/05/25 01:44:08;;;;;;;;;;;;;;;;;;5059420;28;2021;-68
2022/05/25 01:46:36;;;;;;;;;;;;;;;;;;5060709;28;1632;-68
2022/05/25 01:49:04;;;;;;;;;;;;;;;;;;5061323;28;1236;-68
2022/05/25 01:51:40;;;;;;;;;;;;;;;;;;5059105;28;1490;-68
2022/05/25 01:54:06;;;;;;;;;;;;;;;;;;5061055;28;1411;-68
2022/05/25 01:56:33;;;;;;;;;;;;;;;;;;5060167;28;1244;-68
2022/05/25 01:59:03;;;;;;;;;;;;;;;;;;5061243;28;1217;-67
2022/05/25 02:01:28;;;;;;;;;;;;;;;;;;5058656;28;1553;-67
2022/05/25 02:07:02;;;;;;;;;;;;;;;;;;5060426;28;1336;-68
2022/05/25 02:09:47;;;;;;;;;;;;;;;;;;5061158;28;1268;-66
2022/05/25 02:12:12;;;;;;;;;;;;;;;;;;5045901;28;1549;-67
2022/05/25 02:14:56;;;;;;;;;;;;;;;;;;5058397;28;1783;-67
2022/05/25 02:17:30;;;;;;;;;;;;;;;;;;5060111;28;1175;-66
2022/05/25 02:20:18;;;;;;;;;;;;;;;;;;5061526;28;822;-67
2022/05/25 02:22:45;;;;;;;;;;;;;;;;;;5052059;28;1894;-67
2022/05/25 02:25:16;;;;;;;;;;;;;;;;;;5058967;28;1270;-67
2022/05/25 02:27:52;;;;;;;;;;;;;;;;;;5056010;28;1665;-68
2022/05/25 02:30:19;;;;;;;;;;;;;;;;;;5061248;28;1165;-67
2022/05/25 02:32:46;;;;;;;;;;;;;;;;;;5061633;28;987;-68
2022/05/25 02:35:12;;;;;;;;;;;;;;;;;;5075216;28;1540;-68
2022/05/25 02:37:38;;;;;;;;;;;;;;;;;;5061050;28;1382;-68
2022/05/25 02:40:04;;;;;;;;;;;;;;;;;;5061482;28;1553;-68
2022/05/25 02:42:30;;;;;;;;;;;;;;;;;;5059832;28;1474;-68
2022/05/25 02:44:55;;;;;;;;;;;;;;;;;;5060018;28;1882;-68
2022/05/25 02:47:21;;;;;;;;;;;;;;;;;;5059816;28;1483;-67
2022/05/25 02:49:46;;;;;;;;;;;;;;;;;;5060841;28;1263;-68
2022/05/25 02:52:11;;;;;;;;;;;;;;;;;;5061049;28;1489;-67
2022/05/25 02:54:37;;;;;;;;;;;;;;;;;;5060954;28;1526;-68
2022/05/25 02:57:03;;;;;;;;;;;;;;;;;;5055697;28;1498;-67
2022/05/25 02:59:28;;;;;;;;;;;;;;;;;;5060357;28;1271;-68
2022/05/25 03:01:53;;;;;;;;;;;;;;;;;;5059643;28;1755;-70
2022/05/25 03:04:19;;;;;;;;;;;;;;;;;;5060951;28;1964;-70
2022/05/25 03:06:44;;;;;;;;;;;;;;;;;;5059774;28;1868;-70
2022/05/25 03:09:09;;;;;;;;;;;;;;;;;;5060119;28;1381;-70
2022/05/25 03:11:34;;;;;;;;;;;;;;;;;;5056166;28;1569;-70
2022/05/25 03:13:59;;;;;;;;;;;;;;;;;;5047071;28;1773;-70
2022/05/25 03:16:25;;;;;;;;;;;;;;;;;;5059327;28;1387;-70
2022/05/25 03:18:53;;;;;;;;;;;;;;;;;;5058650;28;1342;-69
2022/05/25 03:21:19;;;;;;;;;;;;;;;;;;5060668;28;1403;-69
2022/05/25 03:23:44;;;;;;;;;;;;;;;;;;5060448;28;1948;-68
2022/05/25 03:26:09;;;;;;;;;;;;;;;;;;5058372;28;1788;-68
2022/05/25 03:28:35;;;;;;;;;;;;;;;;;;5060030;28;1283;-68
2022/05/25 03:31:00;;;;;;;;;;;;;;;;;;5060561;28;1454;-68
2022/05/25 03:33:25;;;;;;;;;;;;;;;;;;5059516;28;1729;-68
2022/05/25 03:35:51;;;;;;;;;;;;;;;;;;5060476;28;1155;-68
2022/05/25 03:38:16;;;;;;;;;;;;;;;;;;5062060;28;1203;-68
2022/05/25 03:40:41;;;;;;;;;;;;;;;;;;5062965;28;1708;-68
2022/05/25 03:43:08;;;;;;;;;;;;;;;;;;5062199;28;1894;-67
2022/05/25 03:45:34;;;;;;;;;;;;;;;;;;5071818;28;1417;-68
2022/05/25 03:47:59;;;;;;;;;;;;;;;;;;5057407;28;1689;-68
2022/05/25 03:50:24;;;;;;;;;;;;;;;;;;5063723;28;1147;-68
2022/05/25 03:52:50;;;;;;;;;;;;;;;;;;5064082;28;806;-67
2022/05/25 03:55:15;;;;;;;;;;;;;;;;;;5060254;28;1704;-67
2022/05/25 03:57:40;;;;;;;;;;;;;;;;;;5062918;28;1439;-68
2022/05/25 04:00:06;;;;;;;;;;;;;;;;;;5061396;28;1768;-68
2022/05/25 04:02:31;;;;;;;;;;;;;;;;;;5062508;28;1490;-68
2022/05/25 04:05:09;;;;;;;;;;;;;;;;;;5063263;28;1952;-67
2022/05/25 04:07:42;;;;;;;;;;;;;;;;;;5063258;28;1419;-67
2022/05/25 04:10:08;;;;;;;;;;;;;;;;;;5054967;28;1610;-67
2022/05/25 04:12:33;;;;;;;;;;;;;;;;;;5053118;28;1436;-68
2022/05/25 04:14:59;;;;;;;;;;;;;;;;;;5063383;28;1096;-69
2022/05/25 04:17:24;;;;;;;;;;;;;;;;;;5063463;28;810;-68
2022/05/25 04:19:50;;;;;;;;;;;;;;;;;;5062460;28;1266;-65
2022/05/25 04:22:15;;;;;;;;;;;;;;;;;;5063168;28;1254;-65
2022/05/25 04:24:40;;;;;;;;;;;;;;;;;;5063074;28;1893;-65
2022/05/25 04:27:06;;;;;;;;;;;;;;;;;;5058881;28;1821;-65
2022/05/25 04:29:31;;;;;;;;;;;;;;;;;;5061675;28;1450;-65
2022/05/25 04:31:56;;;;;;;;;;;;;;;;;;5063111;28;1652;-65
2022/05/25 04:34:21;;;;;;;;;;;;;;;;;;5063467;28;806;-65
2022/05/25 04:36:46;;;;;;;;;;;;;;;;;;5063118;28;1506;-65
2022/05/25 04:39:12;;;;;;;;;;;;;;;;;;5061434;28;1720;-65
2022/05/25 04:41:37;;;;;;;;;;;;;;;;;;5062774;28;1422;-65
2022/05/25 04:44:03;;;;;;;;;;;;;;;;;;5062209;28;1953;-66
2022/05/25 04:46:29;;;;;;;;;;;;;;;;;;5062961;28;1211;-66
2022/05/25 04:48:54;;;;;;;;;;;;;;;;;;5061783;28;1204;-65
2022/05/25 04:51:19;;;;;;;;;;;;;;;;;;5063284;28;1498;-64
2022/05/25 04:53:44;;;;;;;;;;;;;;;;;;5063058;28;791;-65
2022/05/25 04:58:54;;;;;;;;;;;;;;;;;;5062376;28;1346;-65
2022/05/25 05:01:19;;;;;;;;;;;;;;;;;;5062851;28;814;-65
2022/05/25 05:03:45;;;;;;;;;;;;;;;;;;5062618;28;1881;-65
2022/05/25 05:06:10;;;;;;;;;;;;;;;;;;5062760;28;1068;-65
2022/05/25 05:08:36;;;;;;;;;;;;;;;;;;5060880;28;1282;-64
2022/05/25 05:11:05;;;;;;;;;;;;;;;;;;5051418;28;1772;-65
2022/05/25 05:13:30;;;;;;;;;;;;;;;;;;5062212;28;1240;-65
2022/05/25 05:16:02;;;;;;;;;;;;;;;;;;5062199;28;1100;-65
2022/05/25 05:18:27;;;;;;;;;;;;;;;;;;5058861;28;1275;-65
2022/05/25 05:20:52;;;;;;;;;;;;;;;;;;5061807;28;1215;-65
2022/05/25 05:23:18;;;;;;;;;;;;;;;;;;5061808;28;1878;-65
2022/05/25 05:25:43;;;;;;;;;;;;;;;;;;5057332;28;1462;-65
2022/05/25 05:28:10;;;;;;;;;;;;;;;;;;5056934;28;1454;-64
2022/05/25 05:30:38;;;;;;;;;;;;;;;;;;5062382;28;1095;-65
2022/05/25 05:33:03;;;;;;;;;;;;;;;;;;5062380;28;815;-65
2022/05/25 05:35:29;;;;;;;;;;;;;;;;;;5062416;28;889;-65
2022/05/25 05:37:55;;;;;;;;;;;;;;;;;;5056452;28;1858;-65
2022/05/25 05:40:21;;;;;;;;;;;;;;;;;;5062477;28;1143;-64
2022/05/25 05:42:47;;;;;;;;;;;;;;;;;;5059357;28;1894;-66
2022/05/25 05:45:14;;;;;;;;;;;;;;;;;;5060740;28;1563;-66
2022/05/25 05:47:45;;;;;;;;;;;;;;;;;;5061384;28;1295;-66
2022/05/25 05:50:11;;;;;;;;;;;;;;;;;;5061696;28;1226;-66
2022/05/25 05:52:36;;;;;;;;;;;;;;;;;;5055931;28;1487;-65
2022/05/25 05:55:02;;;;;;;;;;;;;;;;;;5061777;28;1139;-65
2022/05/25 05:57:28;;;;;;;;;;;;;;;;;;5059857;28;1573;-66
2022/05/25 05:59:53;;;;;;;;;;;;;;;;;;5059033;28;1231;-65
2022/05/25 06:02:18;;;;;;;;;;;;;;;;;;5060914;28;1740;-65
2022/05/25 06:04:43;;;;;;;;;;;;;;;;;;5061755;28;1906;-67
2022/05/25 06:07:08;;;;;;;;;;;;;;;;;;5057889;28;1712;-67
2022/05/25 06:09:34;;;;;;;;;;;;;;;;;;5060606;28;1191;-68
2022/05/25 06:11:59;;;;;;;;;;;;;;;;;;5061087;28;1569;-67
2022/05/25 06:14:25;;;;;;;;;;;;;;;;;;5060299;28;1546;-67
2022/05/25 06:19:37;;;;;;;;;;;;;;;;;;5061256;28;1342;-67
2022/05/25 06:22:04;;;;;;;;;;;;;;;;;;5059679;28;1854;-67
2022/05/25 06:24:31;;;;;;;;;;;;;;;;;;5061323;28;1901;-68
2022/05/25 06:26:56;;;;;;;;;;;;;;;;;;5061134;28;1498;-67
2022/05/25 06:29:21;;;;;;;;;;;;;;;;;;5052661;28;1574;-66
2022/05/25 06:31:48;;;;;;;;;;;;;;;;;;5058014;28;1557;-68
2022/05/25 06:34:13;;;;;;;;;;;;;;;;;;5060123;28;1472;-66
2022/05/25 06:36:38;;;;;;;;;;;;;;;;;;5057531;28;1787;-67
2022/05/25 06:39:04;;;;;;;;;;;;;;;;;;5060520;28;1282;-65
2022/05/25 06:41:29;;;;;;;;;;;;;;;;;;5057896;28;1585;-66
2022/05/25 06:43:54;;;;;;;;;;;;;;;;;;5065812;28;1898;-66
2022/05/25 06:46:20;;;;;;;;;;;;;;;;;;5065541;28;1253;-66
2022/05/25 06:48:46;;;;;;;;;;;;;;;;;;5067604;28;1577;-66
2022/05/25 06:51:13;;;;;;;;;;;;;;;;;;5067090;28;1348;-66
2022/05/25 06:53:38;;;;;;;;;;;;;;;;;;5072870;28;1293;-66
2022/05/25 06:56:04;;;;;;;;;;;;;;;;;;5067439;28;1411;-66
2022/05/25 06:58:29;;;;;;;;;;;;;;;;;;5066927;28;1338;-66
2022/05/25 07:00:54;;;;;;;;;;;;;;;;;;5075146;28;1259;-66
2022/05/25 07:03:21;;;;;;;;;;;;;;;;;;5066274;28;1905;-66
2022/05/25 07:05:46;;;;;;;;;;;;;;;;;;5067096;28;1457;-67
2022/05/25 07:08:11;;;;;;;;;;;;;;;;;;5069785;28;1373;-67
2022/05/25 07:10:36;;;;;;;;;;;;;;;;;;5063763;28;1493;-66
2022/05/25 07:13:02;;;;;;;;;;;;;;;;;;5065846;28;1492;-66
2022/05/25 07:15:27;;;;;;;;;;;;;;;;;;5067493;28;1448;-66
2022/05/25 07:17:52;;;;;;;;;;;;;;;;;;5069376;28;1442;-66
2022/05/25 07:20:17;;;;;;;;;;;;;;;;;;5065700;28;1427;-66
2022/05/25 07:22:42;;;;;;;;;;;;;;;;;;5073584;28;1238;-67
2022/05/25 07:25:08;;;;;;;;;;;;;;;;;;5069027;28;1894;-66
2022/05/25 07:27:33;;;;;;;;;;;;;;;;;;5060832;28;2365;-67
2022/05/25 07:29:58;;;;;;;;;;;;;;;;;;5069740;28;1922;-66
2022/05/25 07:32:24;;;;;;;;;;;;;;;;;;5062668;28;1459;-68
2022/05/25 07:34:54;;;;;;;;;;;;;;;;;;5065607;28;1739;-66
2022/05/25 07:37:22;;;;;;;;;;;;;;;;;;5073052;28;1190;-67
2022/05/25 07:39:49;;;;;;;;;;;;;;;;;;5073257;28;1377;-66
2022/05/25 07:42:15;;;;;;;;;;;;;;;;;;5070141;28;1479;-67
2022/05/25 07:44:43;;;;;;;;;;;;;;;;;;5069987;28;1959;-67
2022/05/25 07:47:08;;;;;;;;;;;;;;;;;;5062249;28;1720;-67
2022/05/25 07:49:33;;;;;;;;;;;;;;;;;;5063581;28;1550;-67
2022/05/25 07:52:00;;;;;;;;;;;;;;;;;;5069074;28;1292;-67
2022/05/25 07:54:25;;;;;;;;;;;;;;;;;;5057606;28;1510;-67
2022/05/25 07:56:51;;;;;;;;;;;;;;;;;;5071263;28;1258;-67
2022/05/25 07:59:16;;;;;;;;;;;;;;;;;;5062599;28;1494;-67
2022/05/25 08:07:13;;;;;;;;;;;;;;;;;;5072069;28;1173;-67
2022/05/25 08:09:39;;;;;;;;;;;;;;;;;;5069794;28;1273;-67
2022/05/25 08:12:05;;;;;;;;;;;;;;;;;;5060233;28;1319;-68
2022/05/25 08:14:30;;;;;;;;;;;;;;;;;;5081988;28;1493;-67
2022/05/25 08:16:56;;;;;;;;;;;;;;;;;;5068060;28;1427;-67
2022/05/25 08:19:21;;;;;;;;;;;;;;;;;;5072847;28;1336;-67
2022/05/25 08:21:47;;;;;;;;;;;;;;;;;;5069335;28;1497;-67
2022/05/25 08:24:13;;;;;;;;;;;;;;;;;;5072998;28;1961;-68
2022/05/25 08:26:38;;;;;;;;;;;;;;;;;;5067957;28;1426;-69
2022/05/25 08:29:04;;;;;;;;;;;;;;;;;;5072483;28;1508;-70
2022/05/25 08:31:29;;;;;;;;;;;;;;;;;;5070435;28;1164;-68
2022/05/25 08:33:54;;;;;;;;;;;;;;;;;;5075259;28;1261;-69
2022/05/25 08:36:19;;;;;;;;;;;;;;;;;;5069816;28;1430;-69
2022/05/25 08:38:45;;;;;;;;;;;;;;;;;;5071238;28;1600;-69
2022/05/25 08:41:10;;;;;;;;;;;;;;;;;;5073605;28;1306;-69
2022/05/25 08:43:41;;;;;;;;;;;;;;;;;;5069375;28;1983;-68
2022/05/25 08:46:08;;;;;;;;;;;;;;;;;;5070095;28;1246;-69
2022/05/25 08:48:33;;;;;;;;;;;;;;;;;;5071006;28;1279;-70
2022/05/25 08:51:01;;;;;;;;;;;;;;;;;;5070387;28;1772;-67
2022/05/25 08:53:26;;;;;;;;;;;;;;;;;;5073091;28;1104;-68
2022/05/25 08:55:56;;;;;;;;;;;;;;;;;;5067043;28;1434;-66
2022/05/25 08:58:23;;;;;;;;;;;;;;;;;;5061671;28;1588;-66
2022/05/25 09:00:48;;;;;;;;;;;;;;;;;;5064383;28;1339;-66
2022/05/25 09:03:15;;;;;;;;;;;;;;;;;;5063132;28;1967;-66
2022/05/25 09:05:48;;;;;;;;;;;;;;;;;;5065472;28;1562;-66
2022/05/25 09:08:14;;;;;;;;;;;;;;;;;;5069542;28;1326;-66
2022/05/25 09:10:42;;;;;;;;;;;;;;;;;;5073087;28;1288;-66
2022/05/25 09:13:23;;;;;;;;;;;;;;;;;;5069043;28;1585;-65
2022/05/25 09:18:36;;;;;;;;;;;;;;;;;;5065727;28;1298;-67
2022/05/25 09:21:03;;;;;;;;;;;;;;;;;;5066951;28;1544;-67
2022/05/25 09:23:29;;;;;;;;;;;;;;;;;;5070742;28;1906;-67
2022/05/25 09:25:54;;;;;;;;;;;;;;;;;;5071936;28;1288;-67
2022/05/25 09:28:29;;;;;;;;;;;;;;;;;;5063127;28;1586;-66
2022/05/25 09:30:56;;;;;;;;;;;;;;;;;;5061267;28;1446;-66
2022/05/25 09:33:24;;;;;;;;;;;;;;;;;;5065391;28;1347;-67
2022/05/25 09:35:51;;;;;;;;;;;;;;;;;;5072718;28;1276;-66
2022/05/25 09:38:32;;;;;;;;;;;;;;;;;;5067823;28;1446;-67
2022/05/25 09:41:02;;;;;;;;;;;;;;;;;;5063765;28;2059;-66
2022/05/25 09:43:30;;;;;;;;;;;;;;;;;;5057037;28;1898;-66
2022/05/25 09:45:56;;;;;;;;;;;;;;;;;;5063975;28;1691;-67
2022/05/25 09:48:22;;;;;;;;;;;;;;;;;;5065502;28;1442;-67
2022/05/25 09:51:10;;;;;;;;;;;;;;;;;;5071107;28;1439;-66
2022/05/25 09:53:38;;;;;;;;;;;;;;;;;;5065630;28;1464;-66
2022/05/25 09:56:06;;;;;;;;;;;;;;;;;;5055429;28;1436;-65
2022/05/25 09:58:34;;;;;;;;;;;;;;;;;;5056193;28;1842;-66
2022/05/25 10:01:03;;;;;;;;;;;;;;;;;;5067493;28;1309;-67
2022/05/25 10:03:38;;;;;;;;;;;;;;;;;;5064522;28;1906;-67
2022/05/25 10:06:20;;;;;;;;;;;;;;;;;;5073032;28;1235;-67
2022/05/25 10:08:49;;;;;;;;;;;;;;;;;;5067684;28;1256;-67
2022/05/25 10:11:33;;;;;;;;;;;;;;;;;;5068537;28;1269;-68
2022/05/25 10:14:19;;;;;;;;;;;;;;;;;;5058886;28;1586;-68
2022/05/25 10:16:44;;;;;;;;;;;;;;;;;;5070871;28;1888;-67
2022/05/25 10:19:11;;;;;;;;;;;;;;;;;;5064973;28;1323;-68
2022/05/25 10:21:36;;;;;;;;;;;;;;;;;;5063901;28;1450;-67
2022/05/25 10:24:03;;;;;;;;;;;;;;;;;;5064444;28;1894;-66
2022/05/25 10:26:33;;;;;;;;;;;;;;;;;;5074489;28;1301;-68
2022/05/25 10:29:09;;;;;;;;;;;;;;;;;;5066236;28;1263;-67
2022/05/25 10:37:16;;;;;;;;;;;;;;;;;;5070711;28;1103;-67
2022/05/25 10:39:44;;;;;;;;;;;;;;;;;;5068998;28;1275;-67
2022/05/25 10:42:22;;;;;;;;;;;;;;;;;;5067059;28;1402;-66
2022/05/25 10:44:50;;;;;;;;;;;;;;;;;;5063365;28;1953;-66
2022/05/25 10:47:30;;;;;;;;;;;;;;;;;;5065298;28;1395;-67
2022/05/25 10:49:55;;;;;;;;;;;;;;;;;;5065477;28;1314;-68
2022/05/25 10:52:20;;;;;;;;;;;;;;;;;;5066536;28;1088;-67
2022/05/25 10:54:50;;;;;;;;;;;;;;;;;;5066896;28;1393;-67
2022/05/25 10:57:24;;;;;;;;;;;;;;;;;;5064382;28;1419;-67
2022/05/25 10:59:55;;;;;;;;;;;;;;;;;;5062536;28;1527;-65
2022/05/25 11:02:23;;;;;;;;;;;;;;;;;;5068763;28;1047;-65
2022/05/25 11:05:00;;;;;;;;;;;;;;;;;;5071689;28;1898;-65
2022/05/25 11:07:33;;;;;;;;;;;;;;;;;;5069441;28;1241;-65
2022/05/25 11:10:04;;;;;;;;;;;;;;;;;;5070652;28;1225;-66
2022/05/25 11:12:40;;;;;;;;;;;;;;;;;;5069616;28;1418;-65
2022/05/25 11:15:05;;;;;;;;;;;;;;;;;;5066476;28;1482;-66
2022/05/25 11:17:35;;;;;;;;;;;;;;;;;;5057382;28;1535;-66
2022/05/25 11:20:09;;;;;;;;;;;;;;;;;;5056324;28;1128;-66
2022/05/25 11:22:38;;;;;;;;;;;;;;;;;;5057341;28;1187;-66
2022/05/25 11:25:22;;;;;;;;;;;;;;;;;;5057389;28;1967;-67
2022/05/25 11:28:06;;;;;;;;;;;;;;;;;;5058736;28;1419;-66
2022/05/25 11:32:40;;;;;;;;;;;;;;;;;;5055324;28;1403;-66
2022/05/25 11:35:26;;;;;;;;;;;;;;;;;;5044325;28;1471;-66
2022/05/25 11:38:11;;;;;;;;;;;;;;;;;;5031320;28;1275;-65
2022/05/25 11:41:11;;;;;;;;;;;;;;;;;;5037790;28;838;-65
2022/05/25 11:43:39;;;;;;;;;;;;;;;;;;5018279;28;1755;-65
2022/05/25 11:46:22;;;;;;;;;;;;;;;;;;5030303;28;1844;-66
2022/05/25 11:48:56;;;;;;;;;;;;;;;;;;5035385;28;1524;-66
2022/05/25 11:51:42;;;;;;;;;;;;;;;;;;5034147;28;1945;-65
2022/05/25 11:54:19;;;;;;;;;;;;;;;;;;5027018;28;1113;-64
2022/05/25 11:56:51;;;;;;;;;;;;;;;;;;5037673;28;1338;-65
2022/05/25 11:59:25;;;;;;;;;;;;;;;;;;5034407;28;1770;-65
2022/05/25 12:02:00;;;;;;;;;;;;;;;;;;5036648;28;1429;-66
2022/05/25 12:04:31;;;;;;;;;;;;;;;;;;5037542;28;1156;-65
2022/05/25 12:07:06;;;;;;;;;;;;;;;;;;5036195;28;2152;-65
2022/05/25 12:09:37;;;;;;;;;;;;;;;;;;5035282;28;1766;-66
2022/05/25 12:12:09;;;;;;;;;;;;;;;;;;5036354;28;1875;-65
2022/05/25 12:14:48;;;;;;;;;;;;;;;;;;5029552;28;1102;-64
2022/05/25 12:17:16;;;;;;;;;;;;;;;;;;5037094;28;807;-64
2022/05/25 12:19:42;;;;;;;;;;;;;;;;;;5035613;28;1706;-65
2022/05/25 12:22:13;;;;;;;;;;;;;;;;;;5033792;28;1432;-65
2022/05/25 12:24:40;;;;;;;;;;;;;;;;;;5027621;28;2155;-65
2022/05/25 12:27:09;;;;;;;;;;;;;;;;;;5043822;28;1977;-64
2022/05/25 12:29:36;;;;;;;;;;;;;;;;;;5046303;28;1795;-65
2022/05/25 12:32:02;;;;;;;;;;;;;;;;;;5054671;28;1964;-65
2022/05/25 12:34:47;;;;;;;;;;;;;;;;;;5061159;28;1116;-65
2022/05/25 12:37:18;;;;;;;;;;;;;;;;;;5063642;28;1416;-65
2022/05/25 12:39:46;;;;;;;;;;;;;;;;;;5058759;28;1322;-66
2022/05/25 12:42:24;;;;;;;;;;;;;;;;;;5060292;28;1604;-65
2022/05/25 12:50:38;;;;;;;;;;;;;;;;;;5037928;28;1949;-66
2022/05/25 12:53:22;;;;;;;;;;;;;;;;;;5046750;28;1381;-65
2022/05/25 12:55:54;;;;;;;;;;;;;;;;;;5043419;28;1444;-65
2022/05/25 12:58:34;;;;;;;;;;;;;;;;;;5050950;28;1334;-65
2022/05/25 13:01:01;;;;;;;;;;;;;;;;;;5042865;28;1374;-65
2022/05/25 13:03:36;;;;;;;;;;;;;;;;;;5053046;28;1599;-65
2022/05/25 13:06:03;;;;;;;;;;;;;;;;;;5042929;28;1393;-65
2022/05/25 13:08:49;;;;;;;;;;;;;;;;;;5049223;28;1429;-66
2022/05/25 13:11:32;;;;;;;;;;;;;;;;;;5048780;28;1898;-67
2022/05/25 13:13:59;;;;;;;;;;;;;;;;;;5041567;28;1749;-64
2022/05/25 13:16:45;;;;;;;;;;;;;;;;;;5050270;28;1264;-65
2022/05/25 13:19:32;;;;;;;;;;;;;;;;;;5019705;28;1192;-65
2022/05/25 13:22:06;;;;;;;;;;;;;;;;;;5055690;28;1211;-65
2022/05/25 13:24:46;;;;;;;;;;;;;;;;;;5051850;28;1279;-64
2022/05/25 13:27:21;;;;;;;;;;;;;;;;;;5047312;28;1470;-64
2022/05/25 13:29:52;;;;;;;;;;;;;;;;;;5044283;28;1303;-65
2022/05/25 13:32:36;;;;;;;;;;;;;;;;;;5050689;28;1894;-65
2022/05/25 13:35:03;;;;;;;;;;;;;;;;;;5046393;28;1568;-65
2022/05/25 13:37:31;;;;;;;;;;;;;;;;;;5045767;28;1198;-65
2022/05/25 13:39:57;;;;;;;;;;;;;;;;;;5046893;28;1509;-65
2022/05/25 13:42:22;;;;;;;;;;;;;;;;;;5042905;28;1428;-63
2022/05/25 13:44:49;;;;;;;;;;;;;;;;;;5050763;28;1507;-66
2022/05/25 13:47:22;;;;;;;;;;;;;;;;;;5049133;28;1669;-65
2022/05/25 13:49:52;;;;;;;;;;;;;;;;;;5051629;28;1622;-65
2022/05/25 13:52:28;;;;;;;;;;;;;;;;;;5053006;28;1902;-65
2022/05/25 13:55:04;;;;;;;;;;;;;;;;;;5049643;28;1104;-66
2022/05/25 13:57:33;;;;;;;;;;;;;;;;;;5051190;28;1255;-65
2022/05/25 14:00:01;;;;;;;;;;;;;;;;;;5043586;28;1473;-66
2022/05/25 14:02:27;;;;;;;;;;;;;;;;;;5046924;28;1436;-66
2022/05/25 14:04:54;;;;;;;;;;;;;;;;;;5049627;28;1423;-66
2022/05/25 14:07:40;;;;;;;;;;;;;;;;;;5052793;28;1261;-64
2022/05/25 14:12:54;;;;;;;;;;;;;;;;;;5047290;28;1241;-65
2022/05/25 14:15:20;;;;;;;;;;;;;;;;;;5046085;28;1438;-65
2022/05/25 14:17:55;;;;;;;;;;;;;;;;;;5046779;28;1406;-65
2022/05/25 14:20:22;;;;;;;;;;;;;;;;;;5047613;28;1501;-65
2022/05/25 14:22:48;;;;;;;;;;;;;;;;;;5042536;28;1760;-66
2022/05/25 14:25:17;;;;;;;;;;;;;;;;;;5045081;28;1432;-65
2022/05/25 14:27:45;;;;;;;;;;;;;;;;;;5046308;28;1251;-65
2022/05/25 14:30:21;;;;;;;;;;;;;;;;;;5044521;28;1372;-65
2022/05/25 14:32:56;;;;;;;;;;;;;;;;;;5025685;28;1310;-66
2022/05/25 14:35:22;;;;;;;;;;;;;;;;;;5045633;28;1495;-67
2022/05/25 14:37:47;;;;;;;;;;;;;;;;;;5056868;28;1337;-67
2022/05/25 14:40:16;;;;;;;;;;;;;;;;;;5051267;28;1215;-67
2022/05/25 14:42:54;;;;;;;;;;;;;;;;;;5046660;28;1743;-67
2022/05/25 14:45:19;;;;;;;;;;;;;;;;;;5044290;28;1797;-66
2022/05/25 14:48:11;;;;;;;;;;;;;;;;;;5045493;28;1377;-66
2022/05/25 14:50:36;;;;;;;;;;;;;;;;;;5046524;28;1889;-66
2022/05/25 14:53:01;;;;;;;;;;;;;;;;;;5046797;28;1270;-66
2022/05/25 14:55:27;;;;;;;;;;;;;;;;;;5045295;28;1888;-66
2022/05/25 14:58:04;;;;;;;;;;;;;;;;;;5048276;28;1455;-67
2022/05/25 15:00:30;;;;;;;;;;;;;;;;;;5043502;28;1448;-66
2022/05/25 15:03:00;;;;;;;;;;;;;;;;;;5041943;28;1756;-66
2022/05/25 15:05:39;;;;;;;;;;;;;;;;;;5040233;28;1389;-65
2022/05/25 15:08:05;;;;;;;;;;;;;;;;;;5045471;28;1522;-64
2022/05/25 15:10:32;;;;;;;;;;;;;;;;;;5032755;28;1902;-65
2022/05/25 15:12:57;;;;;;;;;;;;;;;;;;5048082;28;1427;-65
2022/05/25 15:18:30;;;;;;;;;;;;;;;;;;5042893;28;1378;-66
2022/05/25 15:20:56;;;;;;;;;;;;;;;;;;5030610;28;1518;-66
2022/05/25 15:23:31;;;;;;;;;;;;;;;;;;5046433;28;1234;-66
2022/05/25 15:26:07;;;;;;;;;;;;;;;;;;5049745;28;1488;-66
2022/05/25 15:28:33;;;;;;;;;;;;;;;;;;5040143;28;1701;-65
2022/05/25 15:30:59;;;;;;;;;;;;;;;;;;5045688;28;1961;-65
2022/05/25 15:33:26;;;;;;;;;;;;;;;;;;5048981;28;1047;-66
2022/05/25 15:35:53;;;;;;;;;;;;;;;;;;5048971;28;1416;-65
2022/05/25 15:38:24;;;;;;;;;;;;;;;;;;5052268;28;1565;-66
2022/05/25 15:40:50;;;;;;;;;;;;;;;;;;5048300;28;1254;-65
2022/05/25 15:43:16;;;;;;;;;;;;;;;;;;5047030;28;1642;-65
2022/05/25 15:45:41;;;;;;;;;;;;;;;;;;5045869;28;1516;-65
2022/05/25 15:48:08;;;;;;;;;;;;;;;;;;5053124;28;1381;-65
2022/05/25 15:50:34;;;;;;;;;;;;;;;;;;5049585;28;2212;-65
2022/05/25 15:52:59;;;;;;;;;;;;;;;;;;5055663;28;1267;-66
2022/05/25 15:55:25;;;;;;;;;;;;;;;;;;5052556;28;1463;-65
2022/05/25 15:57:50;;;;;;;;;;;;;;;;;;5046245;28;1256;-64
2022/05/25 16:00:16;;;;;;;;;;;;;;;;;;5046787;28;1440;-66
2022/05/25 16:02:43;;;;;;;;;;;;;;;;;;5044621;28;1478;-65
2022/05/25 16:05:11;;;;;;;;;;;;;;;;;;5052664;28;1143;-64
2022/05/25 16:10:20;;;;;;;;;;;;;;;;;;5052936;28;1111;-64
2022/05/25 16:12:45;;;;;;;;;;;;;;;;;;5048888;28;1231;-65
2022/05/25 16:15:11;;;;;;;;;;;;;;;;;;5045713;28;1753;-65
2022/05/25 16:17:36;;;;;;;;;;;;;;;;;;5045044;28;1498;-65
2022/05/25 16:20:02;;;;;;;;;;;;;;;;;;5051779;28;1195;-65
2022/05/25 16:22:28;;;;;;;;;;;;;;;;;;5053799;28;1230;-65
2022/05/25 16:24:53;;;;;;;;;;;;;;;;;;5050675;28;1259;-65
2022/05/25 16:27:18;;;;;;;;;;;;;;;;;;5051686;28;1404;-65
2022/05/25 16:29:44;;;;;;;;;;;;;;;;;;5047652;28;1438;-65
2022/05/25 16:32:13;;;;;;;;;;;;;;;;;;5048690;28;1886;-65
2022/05/25 16:34:38;;;;;;;;;;;;;;;;;;5046375;28;1265;-65
2022/05/25 16:37:05;;;;;;;;;;;;;;;;;;5050418;28;1428;-65
2022/05/25 16:39:31;;;;;;;;;;;;;;;;;;5048652;28;1301;-65
2022/05/25 16:41:56;;;;;;;;;;;;;;;;;;5055892;28;1309;-65
2022/05/25 16:44:22;;;;;;;;;;;;;;;;;;5048751;28;1282;-65
2022/05/25 16:46:47;;;;;;;;;;;;;;;;;;5047675;28;1615;-65
2022/05/25 16:49:13;;;;;;;;;;;;;;;;;;5054869;28;1373;-65
2022/05/25 16:51:38;;;;;;;;;;;;;;;;;;5057266;28;1894;-64
2022/05/25 16:54:03;;;;;;;;;;;;;;;;;;5052250;28;1341;-65
2022/05/25 16:56:29;;;;;;;;;;;;;;;;;;5049274;28;1251;-65
2022/05/25 16:58:54;;;;;;;;;;;;;;;;;;5042105;28;1480;-64
2022/05/25 17:01:20;;;;;;;;;;;;;;;;;;5040088;28;1547;-65
2022/05/25 17:03:46;;;;;;;;;;;;;;;;;;5045368;28;1724;-65
2022/05/25 17:06:12;;;;;;;;;;;;;;;;;;5045107;28;1475;-65
2022/05/25 17:08:38;;;;;;;;;;;;;;;;;;5043706;28;1578;-65
2022/05/25 17:11:04;;;;;;;;;;;;;;;;;;5052468;28;2282;-65
2022/05/25 17:13:32;;;;;;;;;;;;;;;;;;5047337;28;1443;-65
2022/05/25 17:15:57;;;;;;;;;;;;;;;;;;5049436;28;1413;-65
2022/05/25 17:18:22;;;;;;;;;;;;;;;;;;5046055;28;1359;-65
2022/05/25 17:20:47;;;;;;;;;;;;;;;;;;5042559;28;1511;-65
2022/05/25 17:23:14;;;;;;;;;;;;;;;;;;5043360;28;1365;-65
2022/05/25 17:25:40;;;;;;;;;;;;;;;;;;5045284;28;1424;-66
2022/05/25 17:28:06;;;;;;;;;;;;;;;;;;5045144;28;1404;-64
2022/05/25 17:30:31;;;;;;;;;;;;;;;;;;5047873;28;1960;-64
2022/05/25 17:32:57;;;;;;;;;;;;;;;;;;5047267;28;1346;-65
2022/05/25 17:35:22;;;;;;;;;;;;;;;;;;5031399;28;1425;-65
2022/05/25 17:43:17;;;;;;;;;;;;;;;;;;5043858;28;1430;-65
2022/05/25 17:45:42;;;;;;;;;;;;;;;;;;5047481;28;1475;-65
2022/05/25 17:48:08;;;;;;;;;;;;;;;;;;5050499;28;1365;-65
2022/05/25 17:50:33;;;;;;;;;;;;;;;;;;5045456;28;1968;-65
2022/05/25 17:52:59;;;;;;;;;;;;;;;;;;5045867;28;1242;-64
2022/05/25 17:55:24;;;;;;;;;;;;;;;;;;5051773;28;1369;-63
2022/05/25 17:57:50;;;;;;;;;;;;;;;;;;5046429;28;1479;-63
2022/05/25 18:00:17;;;;;;;;;;;;;;;;;;5051144;28;1224;-63